createdAt,value
2024-01-11T04:39:39.179Z,100.00
2024-01-11T04:42:42.370Z,100.00
2024-01-11T04:45:45.090Z,100.00
2024-01-11T04:48:50.111Z,100.00
2024-01-11T04:51:52.708Z,100.00
2024-01-11T04:54:55.767Z,100.00
2024-01-11T04:57:58.561Z,100.00
2024-01-11T05:01:01.687Z,100.00
2024-01-11T05:04:04.594Z,100.00
2024-01-11T05:07:07.418Z,100.00
2024-01-11T05:10:12.657Z,100.00
2024-01-11T05:13:15.556Z,100.00
2024-01-11T05:16:28.893Z,100.00
2024-01-11T05:19:31.754Z,100.00
2024-01-11T05:22:34.666Z,100.00
2024-01-11T05:25:37.901Z,100.00
2024-01-11T05:28:43.227Z,100.00
2024-01-11T05:31:46.888Z,100.00
2024-01-11T05:34:49.468Z,100.00
2024-01-11T05:37:52.123Z,100.00
2024-01-11T05:40:55.100Z,100.00
2024-01-11T05:43:58.252Z,100.00
2024-01-11T05:47:00.769Z,100.00
2024-01-11T05:50:04.050Z,100.00
2024-01-11T05:53:07.083Z,100.00
2024-01-11T05:56:10.951Z,100.00
2024-01-11T05:59:13.734Z,100.00
2024-01-11T06:02:16.563Z,100.00
2024-01-11T06:05:19.406Z,100.00
2024-01-11T06:08:25.362Z,100.00
2024-01-11T06:11:29.351Z,100.00
2024-01-11T06:14:31.935Z,100.00
2024-01-11T06:17:35.247Z,100.00
2024-01-11T06:20:37.899Z,100.00
2024-01-11T06:23:40.686Z,100.00
2024-01-11T06:26:43.485Z,100.00
2024-01-11T06:29:47.017Z,100.00
2024-01-11T06:32:49.761Z,100.00
2024-01-11T06:35:53.014Z,100.00
2024-01-11T06:38:55.819Z,100.00
2024-01-11T06:41:58.798Z,100.00
2024-01-11T06:45:02.325Z,100.00
2024-01-11T06:48:05.798Z,100.00
2024-01-11T06:51:09.226Z,100.00
2024-01-11T06:54:12.285Z,100.00
2024-01-11T06:57:15.949Z,100.00
2024-01-11T07:00:19.179Z,100.00
2024-01-11T07:03:22.073Z,100.00
2024-01-11T07:06:25.318Z,100.00
2024-01-11T07:09:28.025Z,100.00
2024-01-11T07:12:30.833Z,100.00
2024-01-11T07:15:33.557Z,100.00
2024-01-11T07:18:36.637Z,100.00
2024-01-11T07:21:39.127Z,100.00
2024-01-11T07:24:42.272Z,100.00
2024-01-11T07:27:44.919Z,100.00
2024-01-11T07:30:48.005Z,100.00
2024-01-11T07:36:54.225Z,100.00
2024-01-11T07:39:56.744Z,100.00
2024-01-11T07:43:00.460Z,100.00
2024-01-11T07:46:04.629Z,100.00
2024-01-11T07:49:07.928Z,100.00
2024-01-11T07:52:10.926Z,100.00
2024-01-11T07:55:14.335Z,100.00
2024-01-11T07:58:17.102Z,100.00
2024-01-11T08:01:20.800Z,100.00
2024-01-11T08:04:23.595Z,100.00
2024-01-11T08:07:27.386Z,100.00
2024-01-11T08:10:34.024Z,100.00
2024-01-11T08:13:38.982Z,100.00
2024-01-11T08:16:41.853Z,100.00
2024-01-11T08:19:44.702Z,100.00
2024-01-11T08:22:48.244Z,100.00
2024-01-11T08:25:50.729Z,100.00
2024-01-11T08:28:54.771Z,100.00
2024-01-11T08:31:57.623Z,100.00
2024-01-11T08:35:00.714Z,100.00
2024-01-11T08:38:04.315Z,100.00
2024-01-11T08:41:07.843Z,100.00
2024-01-11T08:44:10.577Z,100.00
2024-01-11T08:47:13.675Z,100.00
2024-01-11T08:50:18.417Z,100.00
2024-01-11T08:53:22.796Z,100.00
2024-01-11T08:56:26.587Z,100.00
2024-01-11T08:59:29.995Z,100.00
2024-01-11T09:02:32.911Z,100.00
2024-01-11T09:05:35.923Z,100.00
2024-01-11T09:08:38.423Z,100.00
2024-01-11T09:11:41.681Z,100.00
2024-01-11T09:14:44.806Z,100.00
2024-01-11T09:17:47.931Z,100.00
2024-01-11T09:20:50.995Z,100.00
2024-01-11T09:23:53.822Z,100.00
2024-01-11T09:26:56.839Z,100.00
2024-01-11T09:29:59.846Z,100.00
2024-01-11T09:33:02.678Z,100.00
2024-01-11T09:36:06.070Z,97.37
2024-01-11T09:39:09.500Z,97.10
2024-01-11T09:42:13.151Z,94.46
2024-01-11T09:45:17.978Z,92.96
2024-01-11T09:48:22.602Z,90.51
2024-01-11T09:51:27.005Z,81.51
2024-01-11T09:54:29.760Z,80.53
2024-01-11T09:57:36.021Z,77.14
2024-01-11T10:00:39.798Z,75.39
2024-01-11T10:03:47.454Z,71.42
2024-01-11T10:06:52.295Z,69.90
2024-01-11T10:09:55.858Z,69.92
2024-01-11T10:12:58.627Z,68.27
2024-01-11T10:16:11.077Z,67.86
2024-01-11T10:19:16.981Z,67.93
2024-01-11T10:22:23.039Z,64.31
2024-01-11T10:25:28.235Z,62.45
2024-01-11T10:28:31.295Z,60.19
2024-01-11T10:31:35.957Z,59.70
2024-01-11T10:34:41.152Z,59.61
2024-01-11T10:37:47.730Z,58.64
2024-01-11T10:40:53.714Z,58.43
2024-01-11T10:43:59.082Z,57.55
2024-01-11T10:47:06.329Z,57.97
2024-01-11T10:50:11.612Z,57.01
2024-01-11T10:53:52.009Z,56.68
2024-01-11T10:56:56.631Z,57.37
2024-01-11T11:00:04.746Z,56.17
2024-01-11T11:03:08.408Z,55.82
2024-01-11T11:06:12.941Z,57.03
2024-01-11T11:09:17.213Z,56.89
2024-01-11T11:12:21.824Z,56.88
2024-01-11T11:15:25.414Z,55.58
2024-01-11T11:18:28.519Z,57.29
2024-01-11T11:21:32.094Z,58.42
2024-01-11T11:24:35.252Z,62.02
2024-01-11T11:27:38.293Z,63.54
2024-01-11T11:30:43.451Z,63.60
2024-01-11T11:33:46.131Z,59.21
2024-01-11T11:36:51.304Z,58.26
2024-01-11T11:39:53.699Z,58.58
2024-01-11T11:42:57.574Z,58.18
2024-01-11T11:46:08.601Z,60.11
2024-01-11T11:49:13.191Z,59.18
2024-01-11T11:52:17.823Z,59.61
2024-01-11T11:55:23.146Z,57.67
2024-01-11T11:58:25.741Z,56.55
2024-01-11T12:01:29.379Z,56.77
2024-01-11T12:04:32.098Z,56.68
2024-01-11T12:07:34.842Z,56.74
2024-01-11T12:10:37.550Z,56.86
2024-01-11T12:13:41.328Z,57.17
2024-01-11T12:16:44.309Z,57.64
2024-01-11T12:19:47.149Z,57.93
2024-01-11T12:22:50.146Z,57.07
2024-01-11T12:25:53.192Z,58.89
2024-01-11T12:28:56.313Z,58.83
2024-01-11T12:32:02.125Z,58.40
2024-01-11T12:35:06.307Z,56.80
2024-01-11T12:38:10.472Z,56.25
2024-01-11T12:41:14.036Z,56.47
2024-01-11T12:44:18.568Z,56.18
2024-01-11T12:47:24.645Z,55.92
2024-01-11T12:50:33.993Z,55.60
2024-01-11T12:53:37.124Z,55.63
2024-01-11T12:56:46.026Z,55.45
2024-01-11T12:59:49.595Z,54.59
2024-01-11T13:02:55.079Z,54.42
2024-01-11T13:05:58.448Z,55.28
2024-01-11T13:09:02.335Z,55.84
2024-01-11T13:12:05.868Z,56.46
2024-01-11T13:15:08.711Z,56.83
2024-01-11T13:18:11.634Z,57.21
2024-01-11T13:21:14.756Z,57.62
2024-01-11T13:24:17.766Z,56.56
2024-01-11T13:27:20.487Z,56.31
2024-01-11T13:30:23.191Z,55.55
2024-01-11T13:33:25.922Z,56.13
2024-01-11T13:36:29.013Z,56.15
2024-01-11T13:39:31.552Z,54.69
2024-01-11T13:42:34.268Z,54.51
2024-01-11T13:45:37.868Z,55.28
2024-01-11T13:48:41.188Z,55.60
2024-01-11T13:51:53.351Z,53.50
2024-01-11T13:55:01.486Z,53.25
2024-01-11T13:58:04.864Z,55.00
2024-01-11T14:01:08.805Z,57.09
2024-01-11T14:04:11.837Z,57.99
2024-01-11T14:07:17.115Z,58.94
2024-01-11T14:10:20.267Z,60.18
2024-01-11T14:13:23.012Z,60.50
2024-01-11T14:16:28.090Z,60.65
2024-01-11T14:19:30.812Z,61.31
2024-01-11T14:22:33.883Z,61.34
2024-01-11T14:25:36.649Z,61.23
2024-01-11T14:28:43.684Z,60.69
2024-01-11T14:31:46.811Z,61.25
2024-01-11T14:34:50.451Z,61.60
2024-01-11T14:37:54.366Z,60.96
2024-01-11T14:40:57.832Z,60.89
2024-01-11T14:44:01.267Z,61.64
2024-01-11T14:47:04.993Z,61.83
2024-01-11T14:50:11.266Z,62.29
2024-01-11T14:53:15.226Z,60.81
2024-01-11T14:56:18.171Z,61.63
2024-01-11T14:59:21.640Z,61.63
2024-01-11T15:02:24.106Z,60.80
2024-01-11T15:05:27.220Z,60.81
2024-01-11T15:08:30.716Z,61.43
2024-01-11T15:11:37.170Z,61.60
2024-01-11T15:14:42.044Z,63.09
2024-01-11T15:17:45.887Z,63.22
2024-01-11T15:20:48.804Z,63.93
2024-01-11T15:23:51.687Z,65.04
2024-01-11T15:26:54.897Z,66.17
2024-01-11T15:29:58.156Z,66.46
2024-01-11T15:33:02.300Z,67.93
2024-01-11T15:36:06.306Z,68.16
2024-01-11T15:39:20.436Z,68.90
2024-01-11T15:42:29.635Z,70.72
2024-01-11T15:45:34.443Z,71.76
2024-01-11T15:48:37.773Z,72.49
2024-01-11T15:51:40.322Z,72.29
2024-01-11T15:54:43.013Z,71.98
2024-01-11T15:57:45.431Z,73.36
2024-01-11T16:00:48.771Z,74.71
2024-01-11T16:03:53.330Z,76.34
2024-01-11T16:06:56.332Z,76.56
2024-01-11T16:09:59.661Z,73.88
2024-01-11T16:13:03.232Z,74.05
2024-01-11T16:16:06.229Z,76.09
2024-01-11T16:19:08.772Z,78.69
2024-01-11T16:22:11.781Z,77.59
2024-01-11T16:25:14.658Z,77.19
2024-01-11T16:28:17.386Z,77.44
2024-01-11T16:31:20.622Z,70.80
2024-01-11T16:34:23.450Z,74.22
2024-01-11T16:37:25.958Z,74.79
2024-01-11T16:40:29.524Z,76.86
2024-01-11T16:43:52.797Z,73.51
2024-01-11T16:46:55.647Z,70.57
